sensor_id;sensor_type;location;lat;lon;timestamp;temperature;humidity
57636;DHT22;43465;50.728;4.160;2023-04-24T00:01:28;10.30;99.90
57636;DHT22;43465;50.728;4.160;2023-04-24T00:03:55;10.30;99.90
57636;DHT22;43465;50.728;4.160;2023-04-24T00:06:25;10.20;99.90
57636;DHT22;43465;50.728;4.160;2023-04-24T00:08:59;10.30;99.90
57636;DHT22;43465;50.728;4.160;2023-04-24T00:11:25;10.30;99.90
57636;DHT22;43465;50.728;4.160;2023-04-24T00:13:50;10.30;99.90
57636;DHT22;43465;50.728;4.160;2023-04-24T00:16:16;10.30;99.90
57636;DHT22;43465;50.728;4.160;2023-04-24T00:18:41;10.20;99.90
57636;DHT22;43465;50.728;4.160;2023-04-24T00:21:07;10.20;99.90
57636;DHT22;43465;50.728;4.160;2023-04-24T00:23:33;10.20;99.90
57636;DHT22;43465;50.728;4.160;2023-04-24T00:25:58;10.20;99.90
57636;DHT22;43465;50.728;4.160;2023-04-24T00:28:24;10.20;99.90
57636;DHT22;43465;50.728;4.160;2023-04-24T00:30:50;10.20;99.90
57636;DHT22;43465;50.728;4.160;2023-04-24T00:33:15;10.20;99.90
57636;DHT22;43465;50.728;4.160;2023-04-24T00:35:41;10.20;99.90
57636;DHT22;43465;50.728;4.160;2023-04-24T00:38:07;10.10;99.90
57636;DHT22;43465;50.728;4.160;2023-04-24T00:40:32;10.10;99.90
57636;DHT22;43465;50.728;4.160;2023-04-24T00:42:58;10.10;99.90
57636;DHT22;43465;50.728;4.160;2023-04-24T00:45:24;10.10;99.90
57636;DHT22;43465;50.728;4.160;2023-04-24T00:47:52;10.00;99.90
57636;DHT22;43465;50.728;4.160;2023-04-24T00:50:18;10.00;99.90
57636;DHT22;43465;50.728;4.160;2023-04-24T00:52:44;9.90;99.90
57636;DHT22;43465;50.728;4.160;2023-04-24T00:55:10;9.90;99.90
57636;DHT22;43465;50.728;4.160;2023-04-24T00:57:37;9.90;99.90
57636;DHT22;43465;50.728;4.160;2023-04-24T01:00:05;9.90;99.90
57636;DHT22;43465;50.728;4.160;2023-04-24T01:02:31;10.00;99.90
57636;DHT22;43465;50.728;4.160;2023-04-24T01:05:00;9.90;99.90
57636;DHT22;43465;50.728;4.160;2023-04-24T01:07:26;9.90;99.90
57636;DHT22;43465;50.728;4.160;2023-04-24T01:09:52;9.90;99.90
57636;DHT22;43465;50.728;4.160;2023-04-24T01:12:19;9.80;99.90
57636;DHT22;43465;50.728;4.160;2023-04-24T01:14:45;9.80;99.90
57636;DHT22;43465;50.728;4.160;2023-04-24T01:17:11;9.80;99.90
57636;DHT22;43465;50.728;4.160;2023-04-24T01:19:37;9.80;99.90
57636;DHT22;43465;50.728;4.160;2023-04-24T01:22:08;9.80;99.90
57636;DHT22;43465;50.728;4.160;2023-04-24T01:24:34;9.80;99.90
57636;DHT22;43465;50.728;4.160;2023-04-24T01:27:00;9.80;99.90
57636;DHT22;43465;50.728;4.160;2023-04-24T01:29:26;9.80;99.90
57636;DHT22;43465;50.728;4.160;2023-04-24T01:31:52;9.80;99.90
57636;DHT22;43465;50.728;4.160;2023-04-24T01:34:18;9.80;99.90
57636;DHT22;43465;50.728;4.160;2023-04-24T01:36:46;9.80;99.90
57636;DHT22;43465;50.728;4.160;2023-04-24T01:39:12;9.80;99.90
57636;DHT22;43465;50.728;4.160;2023-04-24T01:41:38;9.80;99.90
57636;DHT22;43465;50.728;4.160;2023-04-24T01:44:03;9.80;99.90
57636;DHT22;43465;50.728;4.160;2023-04-24T01:46:29;9.80;99.90
57636;DHT22;43465;50.728;4.160;2023-04-24T01:48:59;9.80;99.90
57636;DHT22;43465;50.728;4.160;2023-04-24T01:51:25;9.80;99.90
57636;DHT22;43465;50.728;4.160;2023-04-24T01:53:51;9.70;99.90
57636;DHT22;43465;50.728;4.160;2023-04-24T01:56:16;9.70;99.90
57636;DHT22;43465;50.728;4.160;2023-04-24T01:58:43;9.70;99.90
57636;DHT22;43465;50.728;4.160;2023-04-24T02:01:09;9.70;99.90
57636;DHT22;43465;50.728;4.160;2023-04-24T02:03:40;9.70;99.90
57636;DHT22;43465;50.728;4.160;2023-04-24T02:06:07;9.80;99.90
57636;DHT22;43465;50.728;4.160;2023-04-24T02:08:33;9.80;99.90
57636;DHT22;43465;50.728;4.160;2023-04-24T02:10:58;9.80;99.90
57636;DHT22;43465;50.728;4.160;2023-04-24T02:13:24;9.70;99.90
57636;DHT22;43465;50.728;4.160;2023-04-24T02:15:49;9.80;99.90
57636;DHT22;43465;50.728;4.160;2023-04-24T02:18:15;9.80;99.90
57636;DHT22;43465;50.728;4.160;2023-04-24T02:20:41;9.80;99.90
57636;DHT22;43465;50.728;4.160;2023-04-24T02:23:07;9.80;99.90
57636;DHT22;43465;50.728;4.160;2023-04-24T02:25:33;9.80;99.90
57636;DHT22;43465;50.728;4.160;2023-04-24T02:27:59;9.90;99.90
57636;DHT22;43465;50.728;4.160;2023-04-24T02:30:24;9.80;99.90
57636;DHT22;43465;50.728;4.160;2023-04-24T02:32:50;9.80;99.90
57636;DHT22;43465;50.728;4.160;2023-04-24T02:35:16;9.80;99.90
57636;DHT22;43465;50.728;4.160;2023-04-24T02:37:42;9.80;99.90
57636;DHT22;43465;50.728;4.160;2023-04-24T02:40:08;9.80;99.90
57636;DHT22;43465;50.728;4.160;2023-04-24T02:42:35;9.70;99.90
57636;DHT22;43465;50.728;4.160;2023-04-24T02:45:00;9.70;99.90
57636;DHT22;43465;50.728;4.160;2023-04-24T02:47:26;9.70;99.90
57636;DHT22;43465;50.728;4.160;2023-04-24T02:49:51;9.70;99.90
57636;DHT22;43465;50.728;4.160;2023-04-24T02:52:17;9.70;99.90
57636;DHT22;43465;50.728;4.160;2023-04-24T02:54:43;9.70;99.90
57636;DHT22;43465;50.728;4.160;2023-04-24T02:57:08;9.60;99.90
57636;DHT22;43465;50.728;4.160;2023-04-24T02:59:34;9.60;99.90
57636;DHT22;43465;50.728;4.160;2023-04-24T03:02:00;9.70;99.90
57636;DHT22;43465;50.728;4.160;2023-04-24T03:04:26;9.70;99.90
57636;DHT22;43465;50.728;4.160;2023-04-24T03:06:52;9.70;99.90
57636;DHT22;43465;50.728;4.160;2023-04-24T03:09:20;9.70;99.90
57636;DHT22;43465;50.728;4.160;2023-04-24T03:11:46;9.70;99.90
57636;DHT22;43465;50.728;4.160;2023-04-24T03:14:12;9.70;99.90
57636;DHT22;43465;50.728;4.160;2023-04-24T03:16:38;9.70;99.90
57636;DHT22;43465;50.728;4.160;2023-04-24T03:19:04;9.70;99.90
57636;DHT22;43465;50.728;4.160;2023-04-24T03:21:29;9.70;99.90
57636;DHT22;43465;50.728;4.160;2023-04-24T03:23:55;9.60;99.90
57636;DHT22;43465;50.728;4.160;2023-04-24T03:26:21;9.60;99.90
57636;DHT22;43465;50.728;4.160;2023-04-24T03:28:47;9.60;99.90
57636;DHT22;43465;50.728;4.160;2023-04-24T03:31:12;9.60;99.90
57636;DHT22;43465;50.728;4.160;2023-04-24T03:33:38;9.60;99.90
57636;DHT22;43465;50.728;4.160;2023-04-24T03:36:04;9.50;99.90
57636;DHT22;43465;50.728;4.160;2023-04-24T03:38:30;9.50;99.90
57636;DHT22;43465;50.728;4.160;2023-04-24T03:40:56;9.50;99.90
57636;DHT22;43465;50.728;4.160;2023-04-24T03:43:21;9.50;99.90
57636;DHT22;43465;50.728;4.160;2023-04-24T03:45:47;9.50;99.90
57636;DHT22;43465;50.728;4.160;2023-04-24T03:48:13;9.50;99.90
57636;DHT22;43465;50.728;4.160;2023-04-24T03:50:38;9.50;99.90
57636;DHT22;43465;50.728;4.160;2023-04-24T03:53:04;9.50;99.90
57636;DHT22;43465;50.728;4.160;2023-04-24T03:55:30;9.50;99.90
57636;DHT22;43465;50.728;4.160;2023-04-24T03:57:56;9.60;99.90
57636;DHT22;43465;50.728;4.160;2023-04-24T04:00:21;9.60;99.90
57636;DHT22;43465;50.728;4.160;2023-04-24T04:02:47;9.70;99.90
57636;DHT22;43465;50.728;4.160;2023-04-24T04:05:13;9.70;99.90
57636;DHT22;43465;50.728;4.160;2023-04-24T04:07:38;9.70;99.90
57636;DHT22;43465;50.728;4.160;2023-04-24T04:10:05;9.70;99.90
57636;DHT22;43465;50.728;4.160;2023-04-24T04:12:32;9.60;99.90
57636;DHT22;43465;50.728;4.160;2023-04-24T04:14:58;9.70;99.90
57636;DHT22;43465;50.728;4.160;2023-04-24T04:17:23;9.70;99.90
57636;DHT22;43465;50.728;4.160;2023-04-24T04:19:49;9.70;99.90
57636;DHT22;43465;50.728;4.160;2023-04-24T04:22:14;9.70;99.90
57636;DHT22;43465;50.728;4.160;2023-04-24T04:24:40;9.70;99.90
57636;DHT22;43465;50.728;4.160;2023-04-24T04:27:06;9.70;99.90
57636;DHT22;43465;50.728;4.160;2023-04-24T04:29:33;9.70;99.90
57636;DHT22;43465;50.728;4.160;2023-04-24T04:32:01;9.70;99.90
57636;DHT22;43465;50.728;4.160;2023-04-24T04:34:27;9.70;99.90
57636;DHT22;43465;50.728;4.160;2023-04-24T04:36:55;9.70;99.90
57636;DHT22;43465;50.728;4.160;2023-04-24T04:39:20;9.60;99.90
57636;DHT22;43465;50.728;4.160;2023-04-24T04:41:46;9.70;99.90
57636;DHT22;43465;50.728;4.160;2023-04-24T04:44:14;9.70;99.90
57636;DHT22;43465;50.728;4.160;2023-04-24T04:46:40;9.80;99.90
57636;DHT22;43465;50.728;4.160;2023-04-24T04:49:07;9.70;99.90
57636;DHT22;43465;50.728;4.160;2023-04-24T04:51:34;9.60;99.90
57636;DHT22;43465;50.728;4.160;2023-04-24T04:53:59;9.50;99.90
57636;DHT22;43465;50.728;4.160;2023-04-24T04:56:25;9.60;99.90
57636;DHT22;43465;50.728;4.160;2023-04-24T04:58:51;9.60;99.90
57636;DHT22;43465;50.728;4.160;2023-04-24T05:01:17;9.60;99.90
57636;DHT22;43465;50.728;4.160;2023-04-24T05:03:43;9.70;99.90
57636;DHT22;43465;50.728;4.160;2023-04-24T05:06:08;9.80;99.90
57636;DHT22;43465;50.728;4.160;2023-04-24T05:08:34;9.80;99.90
57636;DHT22;43465;50.728;4.160;2023-04-24T05:11:00;9.80;99.90
57636;DHT22;43465;50.728;4.160;2023-04-24T05:13:26;9.80;99.90
57636;DHT22;43465;50.728;4.160;2023-04-24T05:15:52;9.80;99.90
57636;DHT22;43465;50.728;4.160;2023-04-24T05:18:17;9.70;99.90
57636;DHT22;43465;50.728;4.160;2023-04-24T05:20:43;9.70;99.90
57636;DHT22;43465;50.728;4.160;2023-04-24T05:23:09;9.80;99.90
57636;DHT22;43465;50.728;4.160;2023-04-24T05:25:35;9.80;99.90
57636;DHT22;43465;50.728;4.160;2023-04-24T05:28:01;9.70;99.90
57636;DHT22;43465;50.728;4.160;2023-04-24T05:30:28;9.80;99.90
57636;DHT22;43465;50.728;4.160;2023-04-24T05:32:54;9.70;99.90
57636;DHT22;43465;50.728;4.160;2023-04-24T05:35:19;9.70;99.90
57636;DHT22;43465;50.728;4.160;2023-04-24T05:37:45;9.70;99.90
57636;DHT22;43465;50.728;4.160;2023-04-24T05:40:11;9.60;99.90
57636;DHT22;43465;50.728;4.160;2023-04-24T05:42:37;9.70;99.90
57636;DHT22;43465;50.728;4.160;2023-04-24T05:45:03;9.70;99.90
57636;DHT22;43465;50.728;4.160;2023-04-24T05:47:29;9.70;99.90
57636;DHT22;43465;50.728;4.160;2023-04-24T05:49:54;9.80;99.90
57636;DHT22;43465;50.728;4.160;2023-04-24T05:52:20;9.70;99.90
57636;DHT22;43465;50.728;4.160;2023-04-24T05:54:46;9.80;99.90
57636;DHT22;43465;50.728;4.160;2023-04-24T05:57:11;9.70;99.90
57636;DHT22;43465;50.728;4.160;2023-04-24T05:59:37;9.70;99.90
57636;DHT22;43465;50.728;4.160;2023-04-24T06:02:06;9.60;99.90
57636;DHT22;43465;50.728;4.160;2023-04-24T06:04:32;9.70;99.90
57636;DHT22;43465;50.728;4.160;2023-04-24T06:06:59;9.60;99.90
57636;DHT22;43465;50.728;4.160;2023-04-24T06:09:25;9.70;99.90
57636;DHT22;43465;50.728;4.160;2023-04-24T06:11:51;9.70;99.90
57636;DHT22;43465;50.728;4.160;2023-04-24T06:14:20;9.70;99.90
57636;DHT22;43465;50.728;4.160;2023-04-24T06:16:46;9.70;99.90
57636;DHT22;43465;50.728;4.160;2023-04-24T06:19:12;9.80;99.90
57636;DHT22;43465;50.728;4.160;2023-04-24T06:21:37;9.80;99.90
57636;DHT22;43465;50.728;4.160;2023-04-24T06:24:03;9.80;99.90
57636;DHT22;43465;50.728;4.160;2023-04-24T06:26:30;9.70;99.90
57636;DHT22;43465;50.728;4.160;2023-04-24T06:28:57;9.70;99.90
57636;DHT22;43465;50.728;4.160;2023-04-24T06:31:24;9.60;99.90
57636;DHT22;43465;50.728;4.160;2023-04-24T06:33:50;9.50;99.90
57636;DHT22;43465;50.728;4.160;2023-04-24T06:36:16;9.50;99.90
57636;DHT22;43465;50.728;4.160;2023-04-24T06:38:42;9.40;99.90
57636;DHT22;43465;50.728;4.160;2023-04-24T06:41:08;9.40;99.90
57636;DHT22;43465;50.728;4.160;2023-04-24T06:43:33;9.40;99.90
57636;DHT22;43465;50.728;4.160;2023-04-24T06:45:59;9.40;99.90
57636;DHT22;43465;50.728;4.160;2023-04-24T06:48:25;9.40;99.90
57636;DHT22;43465;50.728;4.160;2023-04-24T06:50:52;9.30;99.90
57636;DHT22;43465;50.728;4.160;2023-04-24T06:53:17;9.40;99.90
57636;DHT22;43465;50.728;4.160;2023-04-24T06:55:43;9.50;99.90
57636;DHT22;43465;50.728;4.160;2023-04-24T06:58:11;9.50;99.90
57636;DHT22;43465;50.728;4.160;2023-04-24T07:00:37;9.60;99.90
57636;DHT22;43465;50.728;4.160;2023-04-24T07:03:03;9.60;99.90
57636;DHT22;43465;50.728;4.160;2023-04-24T07:05:31;9.60;99.90
57636;DHT22;43465;50.728;4.160;2023-04-24T07:07:56;9.60;99.90
57636;DHT22;43465;50.728;4.160;2023-04-24T07:10:24;9.70;99.90
57636;DHT22;43465;50.728;4.160;2023-04-24T07:12:50;9.70;99.90
57636;DHT22;43465;50.728;4.160;2023-04-24T07:15:15;9.70;99.90
57636;DHT22;43465;50.728;4.160;2023-04-24T07:17:41;9.70;99.90
57636;DHT22;43465;50.728;4.160;2023-04-24T07:20:11;9.70;99.90
57636;DHT22;43465;50.728;4.160;2023-04-24T07:22:40;9.80;99.90
57636;DHT22;43465;50.728;4.160;2023-04-24T07:25:06;9.90;99.90
57636;DHT22;43465;50.728;4.160;2023-04-24T07:27:33;9.90;99.90
57636;DHT22;43465;50.728;4.160;2023-04-24T07:29:59;10.00;99.90
57636;DHT22;43465;50.728;4.160;2023-04-24T07:32:24;10.00;99.90
57636;DHT22;43465;50.728;4.160;2023-04-24T07:34:50;10.10;99.90
57636;DHT22;43465;50.728;4.160;2023-04-24T07:37:16;10.20;99.90
57636;DHT22;43465;50.728;4.160;2023-04-24T07:39:42;10.10;99.90
57636;DHT22;43465;50.728;4.160;2023-04-24T07:42:08;10.10;99.90
57636;DHT22;43465;50.728;4.160;2023-04-24T07:44:33;10.10;99.90
57636;DHT22;43465;50.728;4.160;2023-04-24T07:46:59;10.00;99.90
57636;DHT22;43465;50.728;4.160;2023-04-24T07:49:25;10.00;99.90
57636;DHT22;43465;50.728;4.160;2023-04-24T07:51:51;10.00;99.90
57636;DHT22;43465;50.728;4.160;2023-04-24T07:54:16;9.90;99.90
57636;DHT22;43465;50.728;4.160;2023-04-24T07:56:43;9.90;99.90
57636;DHT22;43465;50.728;4.160;2023-04-24T07:59:10;9.90;99.90
57636;DHT22;43465;50.728;4.160;2023-04-24T08:01:36;9.90;99.90
57636;DHT22;43465;50.728;4.160;2023-04-24T08:04:02;9.90;99.90
57636;DHT22;43465;50.728;4.160;2023-04-24T08:06:28;10.10;99.90
57636;DHT22;43465;50.728;4.160;2023-04-24T08:08:56;10.20;99.90
57636;DHT22;43465;50.728;4.160;2023-04-24T08:11:22;10.30;99.90
57636;DHT22;43465;50.728;4.160;2023-04-24T08:13:48;10.40;99.90
57636;DHT22;43465;50.728;4.160;2023-04-24T08:16:13;10.50;99.90
57636;DHT22;43465;50.728;4.160;2023-04-24T08:18:39;10.60;99.90
57636;DHT22;43465;50.728;4.160;2023-04-24T08:21:05;10.60;99.90
57636;DHT22;43465;50.728;4.160;2023-04-24T08:23:30;10.60;99.90
57636;DHT22;43465;50.728;4.160;2023-04-24T08:25:56;10.80;99.90
57636;DHT22;43465;50.728;4.160;2023-04-24T08:28:23;11.00;99.90
57636;DHT22;43465;50.728;4.160;2023-04-24T08:30:49;11.20;99.90
57636;DHT22;43465;50.728;4.160;2023-04-24T08:33:20;11.40;99.90
57636;DHT22;43465;50.728;4.160;2023-04-24T08:35:46;11.50;99.90
57636;DHT22;43465;50.728;4.160;2023-04-24T08:38:11;11.50;99.90
57636;DHT22;43465;50.728;4.160;2023-04-24T08:40:37;11.60;99.90
57636;DHT22;43465;50.728;4.160;2023-04-24T08:43:03;11.80;99.90
57636;DHT22;43465;50.728;4.160;2023-04-24T08:45:29;11.90;99.90
57636;DHT22;43465;50.728;4.160;2023-04-24T08:47:55;11.90;99.90
57636;DHT22;43465;50.728;4.160;2023-04-24T08:50:24;11.90;99.90
57636;DHT22;43465;50.728;4.160;2023-04-24T08:52:51;11.90;99.90
57636;DHT22;43465;50.728;4.160;2023-04-24T08:55:19;11.80;99.90
57636;DHT22;43465;50.728;4.160;2023-04-24T08:57:49;11.70;99.90
57636;DHT22;43465;50.728;4.160;2023-04-24T09:00:16;11.60;99.90
57636;DHT22;43465;50.728;4.160;2023-04-24T09:02:43;11.80;99.90
57636;DHT22;43465;50.728;4.160;2023-04-24T09:05:10;11.80;99.90
57636;DHT22;43465;50.728;4.160;2023-04-24T09:07:36;11.70;99.90
57636;DHT22;43465;50.728;4.160;2023-04-24T09:10:05;11.60;99.90
57636;DHT22;43465;50.728;4.160;2023-04-24T09:12:33;11.70;99.90
57636;DHT22;43465;50.728;4.160;2023-04-24T09:15:00;11.80;99.90
57636;DHT22;43465;50.728;4.160;2023-04-24T09:17:30;11.80;99.90
57636;DHT22;43465;50.728;4.160;2023-04-24T09:19:55;11.80;99.90
57636;DHT22;43465;50.728;4.160;2023-04-24T09:22:21;11.80;99.90
57636;DHT22;43465;50.728;4.160;2023-04-24T09:24:47;11.80;99.90
57636;DHT22;43465;50.728;4.160;2023-04-24T09:27:13;12.00;99.90
57636;DHT22;43465;50.728;4.160;2023-04-24T09:30:02;12.10;99.90
57636;DHT22;43465;50.728;4.160;2023-04-24T09:32:28;12.20;99.90
57636;DHT22;43465;50.728;4.160;2023-04-24T09:35:12;12.10;99.90
57636;DHT22;43465;50.728;4.160;2023-04-24T09:37:48;12.20;99.90
57636;DHT22;43465;50.728;4.160;2023-04-24T09:40:19;12.20;99.90
57636;DHT22;43465;50.728;4.160;2023-04-24T09:42:51;12.20;99.90
57636;DHT22;43465;50.728;4.160;2023-04-24T09:45:17;12.20;99.90
57636;DHT22;43465;50.728;4.160;2023-04-24T09:47:43;12.10;99.90
57636;DHT22;43465;50.728;4.160;2023-04-24T09:50:12;12.20;99.90
57636;DHT22;43465;50.728;4.160;2023-04-24T09:52:45;12.30;99.90
57636;DHT22;43465;50.728;4.160;2023-04-24T09:55:19;12.20;99.90
57636;DHT22;43465;50.728;4.160;2023-04-24T09:57:54;12.30;99.90
57636;DHT22;43465;50.728;4.160;2023-04-24T10:00:28;12.40;99.90
57636;DHT22;43465;50.728;4.160;2023-04-24T10:03:04;12.40;99.90
57636;DHT22;43465;50.728;4.160;2023-04-24T10:05:31;12.20;99.90
57636;DHT22;43465;50.728;4.160;2023-04-24T10:08:10;12.20;99.90
57636;DHT22;43465;50.728;4.160;2023-04-24T10:10:41;12.20;99.90
57636;DHT22;43465;50.728;4.160;2023-04-24T10:13:08;12.30;99.90
57636;DHT22;43465;50.728;4.160;2023-04-24T10:15:35;12.40;99.90
57636;DHT22;43465;50.728;4.160;2023-04-24T10:18:02;12.60;99.90
57636;DHT22;43465;50.728;4.160;2023-04-24T10:20:32;12.70;99.90
57636;DHT22;43465;50.728;4.160;2023-04-24T10:22:58;12.50;99.90
57636;DHT22;43465;50.728;4.160;2023-04-24T10:25:29;12.50;99.90
57636;DHT22;43465;50.728;4.160;2023-04-24T10:27:57;12.40;99.90
57636;DHT22;43465;50.728;4.160;2023-04-24T10:30:29;12.40;99.90
57636;DHT22;43465;50.728;4.160;2023-04-24T10:32:55;12.30;99.90
57636;DHT22;43465;50.728;4.160;2023-04-24T10:35:22;12.20;99.90
57636;DHT22;43465;50.728;4.160;2023-04-24T10:37:56;12.20;99.90
57636;DHT22;43465;50.728;4.160;2023-04-24T10:40:33;12.10;99.90
57636;DHT22;43465;50.728;4.160;2023-04-24T10:43:01;12.30;99.90
57636;DHT22;43465;50.728;4.160;2023-04-24T10:45:27;12.40;99.90
57636;DHT22;43465;50.728;4.160;2023-04-24T10:48:07;12.50;99.90
57636;DHT22;43465;50.728;4.160;2023-04-24T10:50:47;12.80;99.90
57636;DHT22;43465;50.728;4.160;2023-04-24T10:53:21;13.00;99.90
57636;DHT22;43465;50.728;4.160;2023-04-24T10:55:58;13.00;99.90
57636;DHT22;43465;50.728;4.160;2023-04-24T10:58:25;13.00;99.90
57636;DHT22;43465;50.728;4.160;2023-04-24T11:01:00;12.70;99.90
57636;DHT22;43465;50.728;4.160;2023-04-24T11:03:31;12.60;99.90
57636;DHT22;43465;50.728;4.160;2023-04-24T11:06:05;12.50;99.90
57636;DHT22;43465;50.728;4.160;2023-04-24T11:08:44;12.50;99.90
57636;DHT22;43465;50.728;4.160;2023-04-24T11:11:18;12.50;99.90
57636;DHT22;43465;50.728;4.160;2023-04-24T11:21:46;12.60;99.90
57636;DHT22;43465;50.728;4.160;2023-04-24T11:27:09;12.70;99.90
57636;DHT22;43465;50.728;4.160;2023-04-24T11:29:44;12.80;99.90
57636;DHT22;43465;50.728;4.160;2023-04-24T11:34:50;12.90;99.90
57636;DHT22;43465;50.728;4.160;2023-04-24T11:37:16;13.10;99.90
57636;DHT22;43465;50.728;4.160;2023-04-24T11:39:42;13.30;99.90
57636;DHT22;43465;50.728;4.160;2023-04-24T11:42:15;13.50;99.90
57636;DHT22;43465;50.728;4.160;2023-04-24T11:44:41;13.60;99.90
57636;DHT22;43465;50.728;4.160;2023-04-24T11:47:06;13.60;99.90
57636;DHT22;43465;50.728;4.160;2023-04-24T11:49:33;13.60;99.90
57636;DHT22;43465;50.728;4.160;2023-04-24T11:52:02;13.60;99.90
57636;DHT22;43465;50.728;4.160;2023-04-24T11:54:28;13.50;99.90
57636;DHT22;43465;50.728;4.160;2023-04-24T11:56:56;13.60;99.90
57636;DHT22;43465;50.728;4.160;2023-04-24T11:59:21;13.80;99.90
57636;DHT22;43465;50.728;4.160;2023-04-24T12:01:48;13.60;99.90
57636;DHT22;43465;50.728;4.160;2023-04-24T12:04:15;13.70;99.90
57636;DHT22;43465;50.728;4.160;2023-04-24T12:07:02;13.80;99.90
57636;DHT22;43465;50.728;4.160;2023-04-24T12:09:29;13.80;99.90
57636;DHT22;43465;50.728;4.160;2023-04-24T12:11:55;13.70;99.90
57636;DHT22;43465;50.728;4.160;2023-04-24T12:14:22;13.60;99.90
57636;DHT22;43465;50.728;4.160;2023-04-24T12:16:50;13.80;99.90
57636;DHT22;43465;50.728;4.160;2023-04-24T12:19:23;14.00;99.90
57636;DHT22;43465;50.728;4.160;2023-04-24T12:22:09;14.00;99.90
57636;DHT22;43465;50.728;4.160;2023-04-24T12:24:34;13.90;99.90
57636;DHT22;43465;50.728;4.160;2023-04-24T12:27:00;13.80;99.90
57636;DHT22;43465;50.728;4.160;2023-04-24T12:29:26;13.80;99.90
57636;DHT22;43465;50.728;4.160;2023-04-24T12:31:52;13.70;99.90
57636;DHT22;43465;50.728;4.160;2023-04-24T12:34:22;13.70;99.90
57636;DHT22;43465;50.728;4.160;2023-04-24T12:36:49;13.80;99.90
57636;DHT22;43465;50.728;4.160;2023-04-24T12:39:16;13.90;99.90
57636;DHT22;43465;50.728;4.160;2023-04-24T12:41:58;13.90;99.90
57636;DHT22;43465;50.728;4.160;2023-04-24T12:44:32;13.90;99.90
57636;DHT22;43465;50.728;4.160;2023-04-24T12:47:00;14.00;99.90
57636;DHT22;43465;50.728;4.160;2023-04-24T12:49:26;14.10;99.90
57636;DHT22;43465;50.728;4.160;2023-04-24T12:51:52;14.10;99.90
57636;DHT22;43465;50.728;4.160;2023-04-24T12:54:18;14.10;99.90
57636;DHT22;43465;50.728;4.160;2023-04-24T12:56:44;14.10;99.90
57636;DHT22;43465;50.728;4.160;2023-04-24T12:59:09;13.90;99.90
57636;DHT22;43465;50.728;4.160;2023-04-24T13:01:35;13.70;99.90
57636;DHT22;43465;50.728;4.160;2023-04-24T13:04:01;13.60;99.90
57636;DHT22;43465;50.728;4.160;2023-04-24T13:06:26;13.50;99.90
57636;DHT22;43465;50.728;4.160;2023-04-24T13:08:52;13.50;99.90
57636;DHT22;43465;50.728;4.160;2023-04-24T13:11:20;13.50;99.90
57636;DHT22;43465;50.728;4.160;2023-04-24T13:13:47;13.60;99.90
57636;DHT22;43465;50.728;4.160;2023-04-24T13:16:13;13.70;99.90
57636;DHT22;43465;50.728;4.160;2023-04-24T13:18:38;13.80;99.90
57636;DHT22;43465;50.728;4.160;2023-04-24T13:21:04;13.80;99.90
57636;DHT22;43465;50.728;4.160;2023-04-24T13:23:29;13.80;99.90
57636;DHT22;43465;50.728;4.160;2023-04-24T13:25:55;13.80;99.90
57636;DHT22;43465;50.728;4.160;2023-04-24T13:28:24;13.70;99.90
57636;DHT22;43465;50.728;4.160;2023-04-24T13:30:50;13.90;99.90
57636;DHT22;43465;50.728;4.160;2023-04-24T13:33:16;13.90;99.90
57636;DHT22;43465;50.728;4.160;2023-04-24T13:35:42;13.90;99.90
57636;DHT22;43465;50.728;4.160;2023-04-24T13:38:08;14.00;99.90
57636;DHT22;43465;50.728;4.160;2023-04-24T13:40:33;14.00;99.90
57636;DHT22;43465;50.728;4.160;2023-04-24T13:42:59;14.00;99.90
57636;DHT22;43465;50.728;4.160;2023-04-24T13:45:25;13.80;99.90
57636;DHT22;43465;50.728;4.160;2023-04-24T13:47:51;13.70;99.90
57636;DHT22;43465;50.728;4.160;2023-04-24T13:50:17;13.50;99.90
57636;DHT22;43465;50.728;4.160;2023-04-24T13:52:42;13.50;99.90
57636;DHT22;43465;50.728;4.160;2023-04-24T13:55:08;13.50;99.90
57636;DHT22;43465;50.728;4.160;2023-04-24T13:57:34;13.40;99.90
57636;DHT22;43465;50.728;4.160;2023-04-24T14:00:00;13.40;99.90
57636;DHT22;43465;50.728;4.160;2023-04-24T14:02:27;13.30;99.90
57636;DHT22;43465;50.728;4.160;2023-04-24T14:04:53;13.30;99.90
57636;DHT22;43465;50.728;4.160;2023-04-24T14:07:18;13.20;99.90
57636;DHT22;43465;50.728;4.160;2023-04-24T14:09:44;13.20;99.90
57636;DHT22;43465;50.728;4.160;2023-04-24T14:12:10;13.10;99.90
57636;DHT22;43465;50.728;4.160;2023-04-24T14:14:35;13.00;99.90
57636;DHT22;43465;50.728;4.160;2023-04-24T14:17:01;13.10;99.90
57636;DHT22;43465;50.728;4.160;2023-04-24T14:19:27;13.00;99.90
57636;DHT22;43465;50.728;4.160;2023-04-24T14:21:52;12.90;99.90
57636;DHT22;43465;50.728;4.160;2023-04-24T14:24:19;12.90;99.90
57636;DHT22;43465;50.728;4.160;2023-04-24T14:26:44;12.90;99.90
57636;DHT22;43465;50.728;4.160;2023-04-24T14:29:10;12.90;99.90
57636;DHT22;43465;50.728;4.160;2023-04-24T14:31:36;13.00;99.90
57636;DHT22;43465;50.728;4.160;2023-04-24T14:34:01;13.00;99.90
57636;DHT22;43465;50.728;4.160;2023-04-24T14:36:27;13.10;99.90
57636;DHT22;43465;50.728;4.160;2023-04-24T14:38:53;13.30;99.90
57636;DHT22;43465;50.728;4.160;2023-04-24T14:41:18;13.30;99.90
57636;DHT22;43465;50.728;4.160;2023-04-24T14:43:44;13.20;99.90
57636;DHT22;43465;50.728;4.160;2023-04-24T14:46:10;13.30;99.90
57636;DHT22;43465;50.728;4.160;2023-04-24T14:48:35;13.20;99.90
57636;DHT22;43465;50.728;4.160;2023-04-24T14:51:01;13.20;99.90
57636;DHT22;43465;50.728;4.160;2023-04-24T14:53:26;13.20;99.90
57636;DHT22;43465;50.728;4.160;2023-04-24T14:55:53;13.10;99.90
57636;DHT22;43465;50.728;4.160;2023-04-24T14:58:18;13.10;99.90
57636;DHT22;43465;50.728;4.160;2023-04-24T15:00:44;13.00;99.90
57636;DHT22;43465;50.728;4.160;2023-04-24T15:03:10;13.00;99.90
57636;DHT22;43465;50.728;4.160;2023-04-24T15:05:36;13.10;99.90
57636;DHT22;43465;50.728;4.160;2023-04-24T15:08:01;13.10;99.90
57636;DHT22;43465;50.728;4.160;2023-04-24T15:10:28;13.20;99.90
57636;DHT22;43465;50.728;4.160;2023-04-24T15:12:55;13.20;99.90
57636;DHT22;43465;50.728;4.160;2023-04-24T15:15:20;13.10;99.90
57636;DHT22;43465;50.728;4.160;2023-04-24T15:17:46;13.10;99.90
57636;DHT22;43465;50.728;4.160;2023-04-24T15:20:12;13.10;99.90
57636;DHT22;43465;50.728;4.160;2023-04-24T15:22:37;13.00;99.90
57636;DHT22;43465;50.728;4.160;2023-04-24T15:25:03;13.00;99.90
57636;DHT22;43465;50.728;4.160;2023-04-24T15:27:44;12.90;99.90
57636;DHT22;43465;50.728;4.160;2023-04-24T15:30:11;12.80;99.90
57636;DHT22;43465;50.728;4.160;2023-04-24T15:32:38;12.70;99.90
57636;DHT22;43465;50.728;4.160;2023-04-24T15:35:04;12.70;99.90
57636;DHT22;43465;50.728;4.160;2023-04-24T15:37:30;12.70;99.90
57636;DHT22;43465;50.728;4.160;2023-04-24T15:39:56;12.70;99.90
57636;DHT22;43465;50.728;4.160;2023-04-24T15:42:22;12.70;99.90
57636;DHT22;43465;50.728;4.160;2023-04-24T15:44:47;12.70;99.90
57636;DHT22;43465;50.728;4.160;2023-04-24T15:47:13;12.80;99.90
57636;DHT22;43465;50.728;4.160;2023-04-24T15:49:39;12.90;99.90